Ontonagon, MI (49953)

11:29 PM EDT on October 01, 2014 (GMT -0400)
Mountain View Lodges, Silver City, MI / Porcupine Mountains Area | Change Station
CLOSE
Current Station
Personal Weather Station
Location: Ontonagon, MI
Elevation: 587 ft
Nearby Weather Stations

Elev 587 ft 46.83 °N, 89.58 °W | Updated 8 minutes ago

Overcast
Overcast
52.8 °F
Feels Like 52.8 °F
N
0.0
Wind Variable Wind from SSE
Gusts 0.0 mph

Today
High -- | Low -- °F
--% Chance of Precip.
Yesterday
High -- | Low -- °F
Precip. -- in
7:56 AM 7:36 PM
First Quarter, 54% visible
Pressure 29.85 in
Visibility 10.0 miles
Clouds Scattered Clouds 1400 ft
Mostly Cloudy 4100 ft
Overcast 8000 ft
Dew Point 52 °F
Humidity 97%
Rainfall 0.07 in
Snow Depth Not available.
UV 0 out of 12
Pollen .30 out of 12
Air Quality Not available.
Flu Activity Not available.
SPECI KCMX 020306Z AUTO 17008KT 10SM SCT014 BKN041 OVC080 12/10 A2985 RMK AO2 T01220100

More Conditions Fewer Conditions

Pressure 29.85 in
Visibility 10.0 miles
Clouds Scattered Clouds 1400 ft
Mostly Cloudy 4100 ft
Overcast 8000 ft
Dew Point 52 °F
Humidity 97%
Rainfall 0.07 in
Snow Depth Not available.
UV 0 out of 12
Pollen .30 out of 12
Air Quality Not available.
Flu Activity Not available.
SPECI KCMX 020306Z AUTO 17008KT 10SM SCT014 BKN041 OVC080 12/10 A2985 RMK AO2 T01220100

More Conditions Fewer Conditions

10-Day Weather Forecast

Almanac

Astronomy

Oct. 01, 2014 Rise Set
Actual Time 7:56 AM EDT 7:36 PM EDT
Civil Twilight 7:25 AM EDT 8:07 PM EDT
Nautical Twilight 6:50 AM EDT 8:42 PM EDT
Astronomical Twilight 6:14 AM EDT 9:18 PM EDT
Moon 3:12 PM EDT (10/1) No Moon Set
Length of Visible Light 12h 41m
Length of Day
11h 40m
Tomorrow will be 3m 19s shorter.
First Quarter, 54% of the Moon is Illuminated
Today
First Quarter
Oct 8
Full
Oct 15
Last Quarter
Oct 23
New
Oct 30
First Quarter

Today's Extremes

State Highs State Lows

Community

WunderPhotos

Upload Photos

1,758,161 photos uploaded!

WunderBlogs® & News

Nearby

Snow Depth

Station Depth Elevation
No new snow has been reported.

Earthquake Activity

City Distance Mag. Time & Date
No recent earthquake activity has been reported nearby.
Minimum magnitude displayed is 2.5.

Coastal Water Temperatures

Place Temperature
No Stations Reporting

Nearby Weather Stations